sensor_id;sensor_type;location;lat;lon;timestamp;P1;durP1;ratioP1;P2;durP2;ratioP2
41514;SDS011;27247;48.020;16.720;2023-12-29T00:01:17;32.78;;;12.55;;
41514;SDS011;27247;48.020;16.720;2023-12-29T00:05:28;35.97;;;13.25;;
41514;SDS011;27247;48.020;16.720;2023-12-29T00:09:38;33.97;;;13.20;;
41514;SDS011;27247;48.020;16.720;2023-12-29T00:13:50;37.08;;;14.02;;
41514;SDS011;27247;48.020;16.720;2023-12-29T00:18:01;48.67;;;13.83;;
41514;SDS011;27247;48.020;16.720;2023-12-29T00:22:11;35.93;;;13.90;;
41514;SDS011;27247;48.020;16.720;2023-12-29T00:26:21;45.47;;;14.55;;
41514;SDS011;27247;48.020;16.720;2023-12-29T00:30:31;45.57;;;14.97;;
41514;SDS011;27247;48.020;16.720;2023-12-29T00:34:42;37.20;;;14.60;;
41514;SDS011;27247;48.020;16.720;2023-12-29T00:38:52;42.20;;;14.73;;
41514;SDS011;27247;48.020;16.720;2023-12-29T00:43:02;30.17;;;13.60;;
41514;SDS011;27247;48.020;16.720;2023-12-29T00:47:13;31.73;;;13.45;;
41514;SDS011;27247;48.020;16.720;2023-12-29T00:51:24;31.33;;;13.30;;
41514;SDS011;27247;48.020;16.720;2023-12-29T00:55:34;39.33;;;16.37;;
41514;SDS011;27247;48.020;16.720;2023-12-29T00:59:46;38.97;;;16.13;;
41514;SDS011;27247;48.020;16.720;2023-12-29T01:03:57;39.10;;;16.02;;
41514;SDS011;27247;48.020;16.720;2023-12-29T01:08:07;31.30;;;14.93;;
41514;SDS011;27247;48.020;16.720;2023-12-29T01:12:17;38.50;;;14.77;;
41514;SDS011;27247;48.020;16.720;2023-12-29T01:16:28;28.83;;;13.23;;
41514;SDS011;27247;48.020;16.720;2023-12-29T01:20:38;31.00;;;12.73;;
41514;SDS011;27247;48.020;16.720;2023-12-29T01:24:51;44.20;;;18.05;;
41514;SDS011;27247;48.020;16.720;2023-12-29T01:29:02;38.17;;;14.75;;
41514;SDS011;27247;48.020;16.720;2023-12-29T01:33:12;32.50;;;14.80;;
41514;SDS011;27247;48.020;16.720;2023-12-29T01:37:22;34.15;;;15.00;;
41514;SDS011;27247;48.020;16.720;2023-12-29T01:41:33;33.03;;;13.77;;
41514;SDS011;27247;48.020;16.720;2023-12-29T01:45:43;31.42;;;14.43;;
41514;SDS011;27247;48.020;16.720;2023-12-29T01:49:53;30.60;;;13.43;;
41514;SDS011;27247;48.020;16.720;2023-12-29T01:54:04;33.97;;;14.98;;
41514;SDS011;27247;48.020;16.720;2023-12-29T01:58:14;34.50;;;14.77;;
41514;SDS011;27247;48.020;16.720;2023-12-29T02:02:25;35.03;;;16.30;;
41514;SDS011;27247;48.020;16.720;2023-12-29T02:06:36;38.97;;;16.27;;
41514;SDS011;27247;48.020;16.720;2023-12-29T02:10:48;37.78;;;15.82;;
41514;SDS011;27247;48.020;16.720;2023-12-29T02:14:58;43.30;;;17.60;;
41514;SDS011;27247;48.020;16.720;2023-12-29T02:23:51;44.78;;;18.83;;
41514;SDS011;27247;48.020;16.720;2023-12-29T02:32:13;38.42;;;18.40;;
41514;SDS011;27247;48.020;16.720;2023-12-29T02:36:28;40.88;;;18.27;;
41514;SDS011;27247;48.020;16.720;2023-12-29T02:40:40;42.50;;;18.40;;
41514;SDS011;27247;48.020;16.720;2023-12-29T02:44:50;45.40;;;18.65;;
41514;SDS011;27247;48.020;16.720;2023-12-29T02:49:00;36.17;;;17.20;;
41514;SDS011;27247;48.020;16.720;2023-12-29T02:53:11;36.20;;;17.27;;
41514;SDS011;27247;48.020;16.720;2023-12-29T02:57:21;39.97;;;17.55;;
41514;SDS011;27247;48.020;16.720;2023-12-29T03:01:31;40.30;;;18.30;;
41514;SDS011;27247;48.020;16.720;2023-12-29T03:05:42;42.60;;;18.55;;
41514;SDS011;27247;48.020;16.720;2023-12-29T03:09:52;40.53;;;17.77;;
41514;SDS011;27247;48.020;16.720;2023-12-29T03:14:02;39.38;;;16.88;;
41514;SDS011;27247;48.020;16.720;2023-12-29T03:18:13;38.47;;;16.88;;
41514;SDS011;27247;48.020;16.720;2023-12-29T03:22:23;39.33;;;16.43;;
41514;SDS011;27247;48.020;16.720;2023-12-29T03:26:34;34.72;;;15.25;;
41514;SDS011;27247;48.020;16.720;2023-12-29T03:30:44;39.05;;;15.77;;
41514;SDS011;27247;48.020;16.720;2023-12-29T03:34:54;42.17;;;17.38;;
41514;SDS011;27247;48.020;16.720;2023-12-29T03:39:05;39.87;;;15.90;;
41514;SDS011;27247;48.020;16.720;2023-12-29T03:43:16;38.88;;;16.83;;
41514;SDS011;27247;48.020;16.720;2023-12-29T03:47:26;38.03;;;16.97;;
41514;SDS011;27247;48.020;16.720;2023-12-29T03:51:36;37.50;;;17.13;;
41514;SDS011;27247;48.020;16.720;2023-12-29T03:55:47;35.20;;;16.70;;
41514;SDS011;27247;48.020;16.720;2023-12-29T03:59:57;39.20;;;16.38;;
41514;SDS011;27247;48.020;16.720;2023-12-29T04:04:08;33.53;;;16.23;;
41514;SDS011;27247;48.020;16.720;2023-12-29T04:08:18;38.50;;;17.33;;
41514;SDS011;27247;48.020;16.720;2023-12-29T04:12:28;35.17;;;15.85;;
41514;SDS011;27247;48.020;16.720;2023-12-29T04:16:38;36.97;;;15.10;;
41514;SDS011;27247;48.020;16.720;2023-12-29T04:20:49;34.58;;;15.75;;
41514;SDS011;27247;48.020;16.720;2023-12-29T04:24:59;35.10;;;15.20;;
41514;SDS011;27247;48.020;16.720;2023-12-29T04:29:10;38.23;;;17.53;;
41514;SDS011;27247;48.020;16.720;2023-12-29T04:33:20;34.37;;;15.73;;
41514;SDS011;27247;48.020;16.720;2023-12-29T04:37:30;31.40;;;14.53;;
41514;SDS011;27247;48.020;16.720;2023-12-29T04:41:41;31.92;;;14.23;;
41514;SDS011;27247;48.020;16.720;2023-12-29T04:45:51;33.73;;;15.33;;
41514;SDS011;27247;48.020;16.720;2023-12-29T04:50:01;32.63;;;14.25;;
41514;SDS011;27247;48.020;16.720;2023-12-29T04:54:12;35.70;;;15.57;;
41514;SDS011;27247;48.020;16.720;2023-12-29T04:58:22;41.50;;;17.27;;
41514;SDS011;27247;48.020;16.720;2023-12-29T05:02:33;35.13;;;16.25;;
41514;SDS011;27247;48.020;16.720;2023-12-29T05:06:43;36.47;;;17.27;;
41514;SDS011;27247;48.020;16.720;2023-12-29T05:10:54;34.97;;;16.03;;
41514;SDS011;27247;48.020;16.720;2023-12-29T05:15:05;40.58;;;17.42;;
41514;SDS011;27247;48.020;16.720;2023-12-29T05:19:16;38.63;;;17.42;;
41514;SDS011;27247;48.020;16.720;2023-12-29T05:23:26;34.20;;;17.00;;
41514;SDS011;27247;48.020;16.720;2023-12-29T05:27:37;38.40;;;17.75;;
41514;SDS011;27247;48.020;16.720;2023-12-29T05:31:47;35.63;;;17.90;;
41514;SDS011;27247;48.020;16.720;2023-12-29T05:35:58;35.53;;;17.47;;
41514;SDS011;27247;48.020;16.720;2023-12-29T05:40:09;35.42;;;15.82;;
41514;SDS011;27247;48.020;16.720;2023-12-29T05:44:20;34.42;;;17.02;;
41514;SDS011;27247;48.020;16.720;2023-12-29T05:48:30;35.88;;;16.75;;
41514;SDS011;27247;48.020;16.720;2023-12-29T05:52:40;39.38;;;17.38;;
41514;SDS011;27247;48.020;16.720;2023-12-29T05:56:51;36.20;;;15.90;;
41514;SDS011;27247;48.020;16.720;2023-12-29T06:01:01;37.65;;;16.17;;
41514;SDS011;27247;48.020;16.720;2023-12-29T06:05:12;40.10;;;16.40;;
41514;SDS011;27247;48.020;16.720;2023-12-29T06:09:22;34.55;;;16.27;;
41514;SDS011;27247;48.020;16.720;2023-12-29T06:13:32;33.90;;;17.83;;
41514;SDS011;27247;48.020;16.720;2023-12-29T06:17:43;39.88;;;18.35;;
41514;SDS011;27247;48.020;16.720;2023-12-29T06:21:53;39.42;;;18.55;;
41514;SDS011;27247;48.020;16.720;2023-12-29T06:26:04;46.13;;;20.95;;
41514;SDS011;27247;48.020;16.720;2023-12-29T06:30:14;36.63;;;16.50;;
41514;SDS011;27247;48.020;16.720;2023-12-29T06:34:25;36.45;;;17.83;;
41514;SDS011;27247;48.020;16.720;2023-12-29T06:38:35;35.67;;;15.20;;
41514;SDS011;27247;48.020;16.720;2023-12-29T06:42:46;29.17;;;14.02;;
41514;SDS011;27247;48.020;16.720;2023-12-29T06:46:56;30.90;;;15.05;;
41514;SDS011;27247;48.020;16.720;2023-12-29T06:51:06;32.90;;;15.77;;
41514;SDS011;27247;48.020;16.720;2023-12-29T06:55:17;33.15;;;15.55;;
41514;SDS011;27247;48.020;16.720;2023-12-29T06:59:28;39.50;;;17.02;;
41514;SDS011;27247;48.020;16.720;2023-12-29T07:03:38;36.33;;;17.90;;
41514;SDS011;27247;48.020;16.720;2023-12-29T07:07:49;34.13;;;15.55;;
41514;SDS011;27247;48.020;16.720;2023-12-29T07:11:59;27.13;;;13.85;;
41514;SDS011;27247;48.020;16.720;2023-12-29T07:16:10;25.57;;;13.83;;
41514;SDS011;27247;48.020;16.720;2023-12-29T07:20:20;25.67;;;12.60;;
41514;SDS011;27247;48.020;16.720;2023-12-29T07:24:32;25.17;;;12.27;;
41514;SDS011;27247;48.020;16.720;2023-12-29T07:28:42;22.85;;;11.68;;
41514;SDS011;27247;48.020;16.720;2023-12-29T07:32:53;24.90;;;11.98;;
41514;SDS011;27247;48.020;16.720;2023-12-29T07:37:03;26.77;;;11.90;;
41514;SDS011;27247;48.020;16.720;2023-12-29T07:41:13;24.33;;;12.23;;
41514;SDS011;27247;48.020;16.720;2023-12-29T07:45:24;29.45;;;13.82;;
41514;SDS011;27247;48.020;16.720;2023-12-29T07:49:34;31.95;;;13.60;;
41514;SDS011;27247;48.020;16.720;2023-12-29T07:53:45;27.55;;;12.82;;
41514;SDS011;27247;48.020;16.720;2023-12-29T07:57:55;26.88;;;12.68;;
41514;SDS011;27247;48.020;16.720;2023-12-29T08:02:05;31.67;;;13.67;;
41514;SDS011;27247;48.020;16.720;2023-12-29T08:06:16;28.25;;;13.52;;
41514;SDS011;27247;48.020;16.720;2023-12-29T08:10:27;27.02;;;13.38;;
41514;SDS011;27247;48.020;16.720;2023-12-29T08:14:37;32.17;;;15.10;;
41514;SDS011;27247;48.020;16.720;2023-12-29T08:18:48;30.20;;;14.30;;
41514;SDS011;27247;48.020;16.720;2023-12-29T08:22:59;30.85;;;14.50;;
41514;SDS011;27247;48.020;16.720;2023-12-29T08:27:12;38.00;;;16.20;;
41514;SDS011;27247;48.020;16.720;2023-12-29T08:31:23;37.30;;;17.48;;
41514;SDS011;27247;48.020;16.720;2023-12-29T08:35:34;39.28;;;16.17;;
41514;SDS011;27247;48.020;16.720;2023-12-29T08:39:44;36.80;;;16.90;;
41514;SDS011;27247;48.020;16.720;2023-12-29T08:43:54;34.22;;;16.15;;
41514;SDS011;27247;48.020;16.720;2023-12-29T08:48:05;27.83;;;13.75;;
41514;SDS011;27247;48.020;16.720;2023-12-29T08:52:15;18.70;;;10.68;;
41514;SDS011;27247;48.020;16.720;2023-12-29T08:56:26;15.70;;;9.20;;
41514;SDS011;27247;48.020;16.720;2023-12-29T09:00:36;18.35;;;9.57;;
41514;SDS011;27247;48.020;16.720;2023-12-29T09:04:46;16.25;;;9.30;;
41514;SDS011;27247;48.020;16.720;2023-12-29T09:08:57;18.13;;;9.03;;
41514;SDS011;27247;48.020;16.720;2023-12-29T09:13:08;17.05;;;9.00;;
41514;SDS011;27247;48.020;16.720;2023-12-29T09:17:19;15.50;;;8.35;;
41514;SDS011;27247;48.020;16.720;2023-12-29T09:21:30;17.27;;;9.38;;
41514;SDS011;27247;48.020;16.720;2023-12-29T09:25:40;13.25;;;7.50;;
41514;SDS011;27247;48.020;16.720;2023-12-29T09:29:51;23.73;;;11.35;;
41514;SDS011;27247;48.020;16.720;2023-12-29T09:34:01;18.45;;;9.40;;
41514;SDS011;27247;48.020;16.720;2023-12-29T09:38:12;14.93;;;9.40;;
41514;SDS011;27247;48.020;16.720;2023-12-29T09:42:22;15.98;;;8.48;;
41514;SDS011;27247;48.020;16.720;2023-12-29T09:46:34;15.73;;;8.88;;
41514;SDS011;27247;48.020;16.720;2023-12-29T09:50:46;24.30;;;11.88;;
41514;SDS011;27247;48.020;16.720;2023-12-29T09:54:59;20.55;;;11.35;;
41514;SDS011;27247;48.020;16.720;2023-12-29T09:59:10;22.15;;;11.15;;
41514;SDS011;27247;48.020;16.720;2023-12-29T10:03:22;21.92;;;11.68;;
41514;SDS011;27247;48.020;16.720;2023-12-29T10:07:35;20.27;;;11.48;;
41514;SDS011;27247;48.020;16.720;2023-12-29T10:11:48;23.15;;;11.52;;
41514;SDS011;27247;48.020;16.720;2023-12-29T10:16:20;16.38;;;9.90;;
41514;SDS011;27247;48.020;16.720;2023-12-29T10:25:12;16.20;;;9.68;;
41514;SDS011;27247;48.020;16.720;2023-12-29T10:29:22;16.13;;;8.98;;
41514;SDS011;27247;48.020;16.720;2023-12-29T10:33:33;16.52;;;9.02;;
41514;SDS011;27247;48.020;16.720;2023-12-29T10:37:44;14.10;;;8.30;;
41514;SDS011;27247;48.020;16.720;2023-12-29T10:42:04;15.43;;;8.73;;
41514;SDS011;27247;48.020;16.720;2023-12-29T10:46:16;20.23;;;11.07;;
41514;SDS011;27247;48.020;16.720;2023-12-29T10:50:27;18.77;;;11.30;;
41514;SDS011;27247;48.020;16.720;2023-12-29T10:54:37;23.85;;;13.50;;
41514;SDS011;27247;48.020;16.720;2023-12-29T10:58:58;24.23;;;14.50;;
41514;SDS011;27247;48.020;16.720;2023-12-29T11:03:15;24.27;;;13.80;;
41514;SDS011;27247;48.020;16.720;2023-12-29T11:07:33;24.67;;;15.02;;
41514;SDS011;27247;48.020;16.720;2023-12-29T11:11:48;22.25;;;13.95;;
41514;SDS011;27247;48.020;16.720;2023-12-29T11:15:58;22.75;;;13.75;;
41514;SDS011;27247;48.020;16.720;2023-12-29T11:20:11;25.92;;;14.15;;
41514;SDS011;27247;48.020;16.720;2023-12-29T11:24:23;22.42;;;14.55;;
41514;SDS011;27247;48.020;16.720;2023-12-29T11:28:34;20.80;;;12.25;;
41514;SDS011;27247;48.020;16.720;2023-12-29T11:32:51;22.83;;;12.77;;
41514;SDS011;27247;48.020;16.720;2023-12-29T11:37:09;22.48;;;12.18;;
41514;SDS011;27247;48.020;16.720;2023-12-29T11:41:32;12.98;;;8.48;;
41514;SDS011;27247;48.020;16.720;2023-12-29T11:45:49;12.63;;;8.15;;
41514;SDS011;27247;48.020;16.720;2023-12-29T11:49:59;14.18;;;8.77;;
41514;SDS011;27247;48.020;16.720;2023-12-29T11:54:23;11.82;;;7.60;;
41514;SDS011;27247;48.020;16.720;2023-12-29T11:58:35;11.40;;;7.57;;
41514;SDS011;27247;48.020;16.720;2023-12-29T12:02:45;11.35;;;7.22;;
41514;SDS011;27247;48.020;16.720;2023-12-29T12:06:55;15.70;;;9.95;;
41514;SDS011;27247;48.020;16.720;2023-12-29T12:15:38;10.18;;;6.80;;
41514;SDS011;27247;48.020;16.720;2023-12-29T12:19:48;10.27;;;6.65;;
41514;SDS011;27247;48.020;16.720;2023-12-29T12:23:59;13.95;;;8.85;;
41514;SDS011;27247;48.020;16.720;2023-12-29T12:28:10;10.30;;;8.55;;
41514;SDS011;27247;48.020;16.720;2023-12-29T12:32:27;12.95;;;8.88;;
41514;SDS011;27247;48.020;16.720;2023-12-29T12:36:47;12.88;;;7.80;;
41514;SDS011;27247;48.020;16.720;2023-12-29T12:41:11;11.65;;;8.32;;
41514;SDS011;27247;48.020;16.720;2023-12-29T12:45:22;14.27;;;8.20;;
41514;SDS011;27247;48.020;16.720;2023-12-29T12:49:35;11.68;;;7.97;;
41514;SDS011;27247;48.020;16.720;2023-12-29T12:53:46;11.32;;;8.00;;
41514;SDS011;27247;48.020;16.720;2023-12-29T12:57:59;10.90;;;8.45;;
41514;SDS011;27247;48.020;16.720;2023-12-29T13:02:09;12.70;;;8.63;;
41514;SDS011;27247;48.020;16.720;2023-12-29T13:06:19;13.40;;;9.77;;
41514;SDS011;27247;48.020;16.720;2023-12-29T13:10:31;13.10;;;9.68;;
41514;SDS011;27247;48.020;16.720;2023-12-29T13:14:41;15.00;;;11.02;;
41514;SDS011;27247;48.020;16.720;2023-12-29T13:18:52;13.15;;;9.90;;
41514;SDS011;27247;48.020;16.720;2023-12-29T13:23:02;13.17;;;9.17;;
41514;SDS011;27247;48.020;16.720;2023-12-29T13:27:13;12.50;;;8.52;;
41514;SDS011;27247;48.020;16.720;2023-12-29T13:31:24;13.82;;;9.93;;
41514;SDS011;27247;48.020;16.720;2023-12-29T13:35:35;16.17;;;10.93;;
41514;SDS011;27247;48.020;16.720;2023-12-29T13:39:51;18.00;;;12.45;;
41514;SDS011;27247;48.020;16.720;2023-12-29T13:44:03;21.48;;;12.48;;
41514;SDS011;27247;48.020;16.720;2023-12-29T13:48:14;18.67;;;11.55;;
41514;SDS011;27247;48.020;16.720;2023-12-29T13:52:26;17.33;;;11.38;;
41514;SDS011;27247;48.020;16.720;2023-12-29T13:56:37;15.98;;;10.73;;
41514;SDS011;27247;48.020;16.720;2023-12-29T14:00:53;15.32;;;10.70;;
41514;SDS011;27247;48.020;16.720;2023-12-29T14:09:34;16.95;;;11.43;;
41514;SDS011;27247;48.020;16.720;2023-12-29T14:13:44;17.92;;;12.52;;
41514;SDS011;27247;48.020;16.720;2023-12-29T14:17:58;20.27;;;13.57;;
41514;SDS011;27247;48.020;16.720;2023-12-29T14:22:09;20.73;;;13.75;;
41514;SDS011;27247;48.020;16.720;2023-12-29T14:26:19;24.53;;;14.53;;
41514;SDS011;27247;48.020;16.720;2023-12-29T14:30:30;21.10;;;12.95;;
41514;SDS011;27247;48.020;16.720;2023-12-29T14:34:41;20.88;;;12.45;;
41514;SDS011;27247;48.020;16.720;2023-12-29T14:38:52;28.65;;;14.68;;
41514;SDS011;27247;48.020;16.720;2023-12-29T14:43:02;28.98;;;15.90;;
41514;SDS011;27247;48.020;16.720;2023-12-29T14:47:13;33.55;;;17.48;;
41514;SDS011;27247;48.020;16.720;2023-12-29T14:51:25;21.20;;;12.77;;
41514;SDS011;27247;48.020;16.720;2023-12-29T14:55:36;20.98;;;13.15;;
41514;SDS011;27247;48.020;16.720;2023-12-29T14:59:47;19.52;;;12.93;;
41514;SDS011;27247;48.020;16.720;2023-12-29T15:03:57;28.27;;;17.60;;
41514;SDS011;27247;48.020;16.720;2023-12-29T15:08:08;25.83;;;15.80;;
41514;SDS011;27247;48.020;16.720;2023-12-29T15:12:18;23.85;;;14.52;;
41514;SDS011;27247;48.020;16.720;2023-12-29T15:16:28;22.92;;;14.77;;
41514;SDS011;27247;48.020;16.720;2023-12-29T15:20:39;24.10;;;15.20;;
41514;SDS011;27247;48.020;16.720;2023-12-29T15:24:49;24.10;;;15.17;;
41514;SDS011;27247;48.020;16.720;2023-12-29T15:28:59;23.27;;;15.40;;
41514;SDS011;27247;48.020;16.720;2023-12-29T15:33:10;76.40;;;33.87;;
41514;SDS011;27247;48.020;16.720;2023-12-29T15:37:20;23.85;;;15.80;;
41514;SDS011;27247;48.020;16.720;2023-12-29T15:41:33;22.73;;;15.20;;
41514;SDS011;27247;48.020;16.720;2023-12-29T15:45:44;24.77;;;15.65;;
41514;SDS011;27247;48.020;16.720;2023-12-29T15:49:54;27.33;;;18.20;;
41514;SDS011;27247;48.020;16.720;2023-12-29T15:54:05;27.00;;;18.23;;
41514;SDS011;27247;48.020;16.720;2023-12-29T15:58:15;30.00;;;16.63;;
41514;SDS011;27247;48.020;16.720;2023-12-29T16:02:25;28.13;;;17.50;;
41514;SDS011;27247;48.020;16.720;2023-12-29T16:06:37;28.15;;;17.05;;
41514;SDS011;27247;48.020;16.720;2023-12-29T16:10:48;30.83;;;18.02;;
41514;SDS011;27247;48.020;16.720;2023-12-29T16:14:58;26.37;;;17.63;;
41514;SDS011;27247;48.020;16.720;2023-12-29T16:19:08;27.03;;;18.53;;
41514;SDS011;27247;48.020;16.720;2023-12-29T16:23:19;28.15;;;18.92;;
41514;SDS011;27247;48.020;16.720;2023-12-29T16:27:29;34.47;;;21.00;;
41514;SDS011;27247;48.020;16.720;2023-12-29T16:31:39;32.83;;;20.17;;
41514;SDS011;27247;48.020;16.720;2023-12-29T16:35:50;37.38;;;21.13;;
41514;SDS011;27247;48.020;16.720;2023-12-29T16:40:00;31.80;;;20.33;;
41514;SDS011;27247;48.020;16.720;2023-12-29T16:44:10;38.00;;;22.33;;
41514;SDS011;27247;48.020;16.720;2023-12-29T16:48:22;38.28;;;23.52;;
41514;SDS011;27247;48.020;16.720;2023-12-29T16:52:32;34.85;;;22.40;;
41514;SDS011;27247;48.020;16.720;2023-12-29T16:56:43;35.83;;;22.27;;
41514;SDS011;27247;48.020;16.720;2023-12-29T17:00:53;33.72;;;21.90;;
41514;SDS011;27247;48.020;16.720;2023-12-29T17:05:04;40.00;;;23.63;;
41514;SDS011;27247;48.020;16.720;2023-12-29T17:09:15;35.38;;;22.52;;
41514;SDS011;27247;48.020;16.720;2023-12-29T17:13:26;41.45;;;24.58;;
41514;SDS011;27247;48.020;16.720;2023-12-29T17:17:36;42.47;;;23.83;;
41514;SDS011;27247;48.020;16.720;2023-12-29T17:21:46;43.60;;;27.47;;
41514;SDS011;27247;48.020;16.720;2023-12-29T17:25:57;42.22;;;24.92;;
41514;SDS011;27247;48.020;16.720;2023-12-29T17:30:07;150.07;;;52.40;;
41514;SDS011;27247;48.020;16.720;2023-12-29T17:34:18;41.03;;;25.33;;
41514;SDS011;27247;48.020;16.720;2023-12-29T17:38:28;43.57;;;25.30;;
41514;SDS011;27247;48.020;16.720;2023-12-29T17:42:38;39.27;;;25.13;;
41514;SDS011;27247;48.020;16.720;2023-12-29T17:46:48;39.90;;;24.27;;
41514;SDS011;27247;48.020;16.720;2023-12-29T17:50:59;42.55;;;24.88;;
41514;SDS011;27247;48.020;16.720;2023-12-29T17:55:11;42.45;;;25.88;;
41514;SDS011;27247;48.020;16.720;2023-12-29T17:59:22;41.97;;;25.15;;
41514;SDS011;27247;48.020;16.720;2023-12-29T18:03:32;71.05;;;39.60;;
41514;SDS011;27247;48.020;16.720;2023-12-29T18:07:42;57.20;;;31.27;;
41514;SDS011;27247;48.020;16.720;2023-12-29T18:11:53;44.07;;;26.93;;
41514;SDS011;27247;48.020;16.720;2023-12-29T18:16:09;53.13;;;29.47;;
41514;SDS011;27247;48.020;16.720;2023-12-29T18:20:20;46.95;;;28.77;;
41514;SDS011;27247;48.020;16.720;2023-12-29T18:24:33;52.47;;;30.75;;
41514;SDS011;27247;48.020;16.720;2023-12-29T18:28:43;54.75;;;31.50;;
41514;SDS011;27247;48.020;16.720;2023-12-29T18:32:53;52.75;;;30.45;;
41514;SDS011;27247;48.020;16.720;2023-12-29T18:37:05;51.72;;;29.38;;
41514;SDS011;27247;48.020;16.720;2023-12-29T18:41:15;53.67;;;29.30;;
41514;SDS011;27247;48.020;16.720;2023-12-29T18:45:29;54.92;;;30.33;;
41514;SDS011;27247;48.020;16.720;2023-12-29T18:49:39;57.17;;;30.63;;
41514;SDS011;27247;48.020;16.720;2023-12-29T18:53:49;55.83;;;30.77;;
41514;SDS011;27247;48.020;16.720;2023-12-29T18:58:00;56.47;;;31.38;;
41514;SDS011;27247;48.020;16.720;2023-12-29T19:02:11;59.03;;;32.65;;
41514;SDS011;27247;48.020;16.720;2023-12-29T19:06:26;60.63;;;32.50;;
41514;SDS011;27247;48.020;16.720;2023-12-29T19:10:36;63.45;;;34.13;;
41514;SDS011;27247;48.020;16.720;2023-12-29T19:14:46;65.28;;;33.35;;
41514;SDS011;27247;48.020;16.720;2023-12-29T19:19:02;71.47;;;36.50;;
41514;SDS011;27247;48.020;16.720;2023-12-29T19:23:12;74.87;;;36.50;;
41514;SDS011;27247;48.020;16.720;2023-12-29T19:27:22;74.72;;;36.38;;
41514;SDS011;27247;48.020;16.720;2023-12-29T19:31:33;65.70;;;35.58;;
41514;SDS011;27247;48.020;16.720;2023-12-29T19:35:44;70.00;;;37.50;;
41514;SDS011;27247;48.020;16.720;2023-12-29T19:39:54;66.15;;;36.17;;
41514;SDS011;27247;48.020;16.720;2023-12-29T19:44:04;69.50;;;37.28;;
41514;SDS011;27247;48.020;16.720;2023-12-29T19:48:16;68.13;;;36.83;;
41514;SDS011;27247;48.020;16.720;2023-12-29T19:52:26;61.83;;;35.77;;
41514;SDS011;27247;48.020;16.720;2023-12-29T19:56:37;72.20;;;37.17;;
41514;SDS011;27247;48.020;16.720;2023-12-29T20:00:48;74.72;;;38.20;;
41514;SDS011;27247;48.020;16.720;2023-12-29T20:04:59;73.57;;;38.42;;
41514;SDS011;27247;48.020;16.720;2023-12-29T20:09:10;62.55;;;35.03;;
41514;SDS011;27247;48.020;16.720;2023-12-29T20:13:21;62.13;;;34.70;;
41514;SDS011;27247;48.020;16.720;2023-12-29T20:17:31;61.37;;;35.83;;
41514;SDS011;27247;48.020;16.720;2023-12-29T20:21:41;72.53;;;35.28;;
41514;SDS011;27247;48.020;16.720;2023-12-29T20:25:53;66.20;;;35.20;;
41514;SDS011;27247;48.020;16.720;2023-12-29T20:30:07;71.53;;;37.97;;
41514;SDS011;27247;48.020;16.720;2023-12-29T20:34:18;66.05;;;35.72;;
41514;SDS011;27247;48.020;16.720;2023-12-29T20:38:28;56.40;;;31.63;;
41514;SDS011;27247;48.020;16.720;2023-12-29T20:42:39;51.67;;;30.27;;
41514;SDS011;27247;48.020;16.720;2023-12-29T20:46:51;52.05;;;28.52;;
41514;SDS011;27247;48.020;16.720;2023-12-29T20:51:01;51.80;;;29.52;;
41514;SDS011;27247;48.020;16.720;2023-12-29T20:55:12;57.92;;;32.28;;
41514;SDS011;27247;48.020;16.720;2023-12-29T20:59:22;65.78;;;35.00;;
41514;SDS011;27247;48.020;16.720;2023-12-29T21:03:33;68.43;;;35.15;;
41514;SDS011;27247;48.020;16.720;2023-12-29T21:07:44;66.40;;;36.38;;
41514;SDS011;27247;48.020;16.720;2023-12-29T21:11:54;65.65;;;35.83;;
41514;SDS011;27247;48.020;16.720;2023-12-29T21:16:11;71.10;;;36.97;;
41514;SDS011;27247;48.020;16.720;2023-12-29T21:20:23;69.80;;;36.85;;
41514;SDS011;27247;48.020;16.720;2023-12-29T21:24:33;67.87;;;34.97;;
41514;SDS011;27247;48.020;16.720;2023-12-29T21:28:43;61.17;;;33.53;;
41514;SDS011;27247;48.020;16.720;2023-12-29T21:32:54;65.75;;;34.33;;
41514;SDS011;27247;48.020;16.720;2023-12-29T21:37:06;66.55;;;33.28;;
41514;SDS011;27247;48.020;16.720;2023-12-29T21:41:16;51.73;;;29.53;;
41514;SDS011;27247;48.020;16.720;2023-12-29T21:45:26;54.95;;;30.50;;
41514;SDS011;27247;48.020;16.720;2023-12-29T21:49:37;55.53;;;30.55;;
41514;SDS011;27247;48.020;16.720;2023-12-29T21:53:49;55.72;;;31.08;;
41514;SDS011;27247;48.020;16.720;2023-12-29T21:57:59;59.13;;;30.87;;
41514;SDS011;27247;48.020;16.720;2023-12-29T22:02:11;57.45;;;31.55;;
41514;SDS011;27247;48.020;16.720;2023-12-29T22:06:22;54.95;;;31.45;;
41514;SDS011;27247;48.020;16.720;2023-12-29T22:10:32;59.25;;;31.27;;
41514;SDS011;27247;48.020;16.720;2023-12-29T22:14:42;58.05;;;33.92;;
41514;SDS011;27247;48.020;16.720;2023-12-29T22:18:53;76.60;;;38.70;;
41514;SDS011;27247;48.020;16.720;2023-12-29T22:23:03;70.18;;;36.47;;
41514;SDS011;27247;48.020;16.720;2023-12-29T22:27:13;70.53;;;36.43;;
41514;SDS011;27247;48.020;16.720;2023-12-29T22:31:24;79.78;;;37.10;;
41514;SDS011;27247;48.020;16.720;2023-12-29T22:35:34;77.73;;;38.97;;
41514;SDS011;27247;48.020;16.720;2023-12-29T22:39:44;74.83;;;37.53;;
41514;SDS011;27247;48.020;16.720;2023-12-29T22:43:55;59.87;;;35.10;;
41514;SDS011;27247;48.020;16.720;2023-12-29T22:48:05;70.73;;;35.53;;
41514;SDS011;27247;48.020;16.720;2023-12-29T22:52:16;61.95;;;34.05;;
41514;SDS011;27247;48.020;16.720;2023-12-29T22:56:26;66.03;;;35.47;;
41514;SDS011;27247;48.020;16.720;2023-12-29T23:00:37;65.67;;;34.23;;
41514;SDS011;27247;48.020;16.720;2023-12-29T23:04:47;66.97;;;35.75;;
41514;SDS011;27247;48.020;16.720;2023-12-29T23:08:58;67.20;;;35.42;;
41514;SDS011;27247;48.020;16.720;2023-12-29T23:13:09;62.97;;;34.53;;
41514;SDS011;27247;48.020;16.720;2023-12-29T23:17:22;60.42;;;32.10;;
41514;SDS011;27247;48.020;16.720;2023-12-29T23:21:33;60.33;;;33.00;;
41514;SDS011;27247;48.020;16.720;2023-12-29T23:25:43;65.40;;;33.30;;
41514;SDS011;27247;48.020;16.720;2023-12-29T23:29:53;61.03;;;33.83;;
41514;SDS011;27247;48.020;16.720;2023-12-29T23:34:03;65.57;;;35.10;;
41514;SDS011;27247;48.020;16.720;2023-12-29T23:38:14;58.43;;;32.53;;
41514;SDS011;27247;48.020;16.720;2023-12-29T23:42:26;62.22;;;33.53;;
41514;SDS011;27247;48.020;16.720;2023-12-29T23:46:36;59.65;;;34.42;;
41514;SDS011;27247;48.020;16.720;2023-12-29T23:50:46;57.47;;;31.45;;
41514;SDS011;27247;48.020;16.720;2023-12-29T23:54:57;62.77;;;33.27;;
41514;SDS011;27247;48.020;16.720;2023-12-29T23:59:07;60.80;;;33.60;;
